createdAt,value
2023-03-06T00:00:59.464Z,25.00
2023-03-06T00:03:28.003Z,26.05
2023-03-06T00:05:58.708Z,24.92
2023-03-06T00:08:28.485Z,32.83
2023-03-06T00:10:57.232Z,35.53
2023-03-06T00:13:26.618Z,29.48
2023-03-06T00:15:54.476Z,32.97
2023-03-06T00:18:22.271Z,34.88
2023-03-06T00:20:50.026Z,33.08
2023-03-06T00:23:19.651Z,36.83
2023-03-06T00:25:47.434Z,31.67
2023-03-06T00:28:17.285Z,32.67
2023-03-06T00:30:48.053Z,32.38
2023-03-06T00:33:15.859Z,34.25
2023-03-06T00:35:43.886Z,32.53
2023-03-06T00:38:13.447Z,31.42
2023-03-06T00:40:45.704Z,31.65
2023-03-06T00:43:14.730Z,33.20
2023-03-06T00:45:43.930Z,25.52
2023-03-06T00:48:14.969Z,33.63
2023-03-06T00:50:42.699Z,33.90
2023-03-06T00:53:14.665Z,29.90
2023-03-06T00:55:46.888Z,29.67
2023-03-06T00:58:14.754Z,32.58
2023-03-06T01:00:42.751Z,32.58
2023-03-06T01:03:11.909Z,28.77
2023-03-06T01:05:40.478Z,33.03
2023-03-06T01:08:08.836Z,28.65
2023-03-06T01:10:39.648Z,31.88
2023-03-06T01:13:09.005Z,34.08
2023-03-06T01:15:36.801Z,34.03
2023-03-06T01:18:05.149Z,28.70
2023-03-06T01:20:33.149Z,36.80
2023-03-06T01:23:01.094Z,33.22
2023-03-06T01:25:28.990Z,29.95
2023-03-06T01:27:56.799Z,26.55
2023-03-06T01:30:26.006Z,28.15
2023-03-06T01:32:53.814Z,27.67
2023-03-06T01:35:21.859Z,26.20
2023-03-06T01:37:49.800Z,30.35
2023-03-06T01:40:17.534Z,28.35
2023-03-06T01:42:46.783Z,32.70
2023-03-06T01:45:52.081Z,26.13
2023-03-06T01:48:25.027Z,28.02
2023-03-06T01:50:55.257Z,28.58
2023-03-06T01:53:23.117Z,27.48
2023-03-06T01:55:51.186Z,32.38
2023-03-06T01:58:20.539Z,27.90
2023-03-06T02:00:48.576Z,31.92
2023-03-06T02:03:24.384Z,29.75
2023-03-06T02:05:52.387Z,24.27
2023-03-06T02:08:22.719Z,25.63
2023-03-06T02:10:59.773Z,27.73
2023-03-06T02:13:27.864Z,22.98
2023-03-06T02:15:55.906Z,25.88
2023-03-06T02:18:25.201Z,23.63
2023-03-06T02:20:55.437Z,22.75
2023-03-06T02:23:31.126Z,25.35
2023-03-06T02:26:01.445Z,29.05
2023-03-06T02:28:29.515Z,26.95
2023-03-06T02:30:57.735Z,27.58
2023-03-06T02:33:28.052Z,25.40
2023-03-06T02:35:58.447Z,27.15
2023-03-06T02:38:29.685Z,28.83
2023-03-06T02:40:58.141Z,32.83
2023-03-06T02:43:30.647Z,23.48
2023-03-06T02:45:58.619Z,24.13
2023-03-06T02:48:26.436Z,27.02
2023-03-06T02:50:54.183Z,25.13
2023-03-06T02:53:22.673Z,25.20
2023-03-06T02:55:50.864Z,28.42
2023-03-06T02:58:19.709Z,27.00
2023-03-06T03:00:49.711Z,26.77
2023-03-06T03:03:18.216Z,27.25
2023-03-06T03:05:46.123Z,23.40
2023-03-06T03:08:14.572Z,27.77
2023-03-06T03:10:42.382Z,26.35
2023-03-06T03:13:10.103Z,26.58
2023-03-06T03:15:38.003Z,23.83
2023-03-06T03:18:07.272Z,23.15
2023-03-06T03:20:35.074Z,21.20
2023-03-06T03:23:02.901Z,21.63
2023-03-06T03:25:30.733Z,19.48
2023-03-06T03:27:58.407Z,24.30
2023-03-06T03:30:26.279Z,21.13
2023-03-06T03:32:54.124Z,22.95
2023-03-06T03:35:23.295Z,23.88
2023-03-06T03:37:52.685Z,22.95
2023-03-06T03:40:20.469Z,22.38
2023-03-06T03:42:48.149Z,21.70
2023-03-06T03:45:16.250Z,21.35
2023-03-06T03:47:44.084Z,21.73
2023-03-06T03:50:13.042Z,20.83
2023-03-06T03:52:42.151Z,21.02
2023-03-06T03:55:10.092Z,23.85
2023-03-06T03:57:39.210Z,20.90
2023-03-06T04:00:08.540Z,21.92
2023-03-06T04:02:36.314Z,22.08
2023-03-06T04:05:05.057Z,22.95
2023-03-06T04:07:32.886Z,17.75
2023-03-06T04:10:02.121Z,19.02
2023-03-06T04:12:29.828Z,19.48
2023-03-06T04:14:57.553Z,21.13
2023-03-06T04:17:25.729Z,18.73
2023-03-06T04:19:53.492Z,19.10
2023-03-06T04:22:21.269Z,19.75
2023-03-06T04:24:49.847Z,16.48
2023-03-06T04:27:19.382Z,23.23
2023-03-06T04:29:47.147Z,24.20
2023-03-06T04:32:14.917Z,21.42
2023-03-06T04:34:42.808Z,22.55
2023-03-06T04:37:18.953Z,20.92
2023-03-06T04:39:46.675Z,18.13
2023-03-06T04:42:14.647Z,18.65
2023-03-06T04:44:43.901Z,17.73
2023-03-06T04:47:12.286Z,19.52
2023-03-06T04:49:40.112Z,19.88
2023-03-06T04:52:08.601Z,20.42
2023-03-06T04:54:36.570Z,26.65
2023-03-06T04:57:04.611Z,15.27
2023-03-06T04:59:32.332Z,21.48
2023-03-06T05:02:01.502Z,20.45
2023-03-06T05:04:29.282Z,23.58
2023-03-06T05:06:57.003Z,21.25
2023-03-06T05:09:24.735Z,20.17
2023-03-06T05:11:52.467Z,18.55
2023-03-06T05:14:20.411Z,18.35
2023-03-06T05:16:48.242Z,15.40
2023-03-06T05:19:17.511Z,17.00
2023-03-06T05:21:45.216Z,20.75
2023-03-06T05:24:13.179Z,17.17
2023-03-06T05:26:41.114Z,16.92
2023-03-06T05:29:09.027Z,21.52
2023-03-06T05:31:36.823Z,19.90
2023-03-06T05:34:04.612Z,18.02
2023-03-06T05:36:34.393Z,24.35
2023-03-06T05:39:02.166Z,17.52
2023-03-06T05:41:30.085Z,27.65
2023-03-06T05:43:58.034Z,23.98
2023-03-06T05:46:26.098Z,21.67
2023-03-06T05:48:56.226Z,18.35
2023-03-06T05:51:24.498Z,19.33
2023-03-06T05:53:54.016Z,19.10
2023-03-06T05:56:22.238Z,22.13
2023-03-06T05:58:50.977Z,18.05
2023-03-06T06:01:21.540Z,14.30
2023-03-06T06:03:49.677Z,20.88
2023-03-06T06:06:17.758Z,23.27
2023-03-06T06:08:46.501Z,16.67
2023-03-06T06:11:18.652Z,16.55
2023-03-06T06:13:46.477Z,15.80
2023-03-06T06:16:16.777Z,19.45
2023-03-06T06:18:45.072Z,18.88
2023-03-06T06:21:15.142Z,20.05
2023-03-06T06:23:43.743Z,18.08
2023-03-06T06:26:11.901Z,17.08
2023-03-06T06:28:41.595Z,24.25
2023-03-06T06:31:10.909Z,18.83
2023-03-06T06:33:38.854Z,24.27
2023-03-06T06:36:08.313Z,22.90
2023-03-06T06:38:36.232Z,19.15
2023-03-06T06:41:35.570Z,21.20
2023-03-06T06:43:56.314Z,20.35
2023-03-06T06:47:14.364Z,18.15
2023-03-06T06:49:14.331Z,21.70
2023-03-06T06:51:42.793Z,17.90
2023-03-06T06:54:12.484Z,24.83
2023-03-06T06:56:40.484Z,20.45
2023-03-06T06:59:16.394Z,24.77
2023-03-06T07:01:45.220Z,17.83
2023-03-06T07:04:14.164Z,17.17
2023-03-06T07:06:42.150Z,20.80
2023-03-06T07:09:10.231Z,22.75
2023-03-06T07:11:40.343Z,22.95
2023-03-06T07:14:09.872Z,18.73
2023-03-06T07:16:37.645Z,17.08
2023-03-06T07:19:05.492Z,18.90
2023-03-06T07:21:33.449Z,41.78
2023-03-06T07:24:01.826Z,24.60
2023-03-06T07:26:32.135Z,17.52
2023-03-06T07:29:01.956Z,18.65
2023-03-06T07:31:31.672Z,29.08
2023-03-06T07:33:59.776Z,20.20
2023-03-06T07:36:27.567Z,19.08
2023-03-06T07:38:55.630Z,20.17
2023-03-06T07:41:24.637Z,18.10
2023-03-06T07:43:52.393Z,19.10
2023-03-06T07:46:20.479Z,20.85
2023-03-06T07:48:49.740Z,21.90
2023-03-06T07:51:19.457Z,19.50
2023-03-06T07:53:48.446Z,19.02
2023-03-06T07:56:16.955Z,19.95
2023-03-06T07:58:48.116Z,17.63
2023-03-06T08:01:17.553Z,18.33
2023-03-06T08:03:45.978Z,21.00
2023-03-06T08:06:18.235Z,18.05
2023-03-06T08:08:48.430Z,17.73
2023-03-06T08:11:19.113Z,15.93
2023-03-06T08:13:50.989Z,19.42
2023-03-06T08:16:21.466Z,17.05
2023-03-06T08:18:49.732Z,19.17
2023-03-06T08:21:21.393Z,20.48
2023-03-06T08:23:49.737Z,18.42
2023-03-06T08:26:19.700Z,16.95
2023-03-06T08:28:47.890Z,22.15
2023-03-06T08:31:25.318Z,24.65
2023-03-06T08:33:53.897Z,14.10
2023-03-06T08:36:24.017Z,14.85
2023-03-06T08:38:59.066Z,17.20
2023-03-06T08:41:29.267Z,17.23
2023-03-06T08:43:57.267Z,18.27
2023-03-06T08:46:26.953Z,12.27
2023-03-06T08:48:55.714Z,11.27
2023-03-06T08:51:26.772Z,13.80
2023-03-06T08:53:54.756Z,12.35
2023-03-06T08:56:24.741Z,13.45
2023-03-06T08:58:54.137Z,15.48
2023-03-06T09:01:24.362Z,12.93
2023-03-06T09:03:55.600Z,15.38
2023-03-06T09:06:25.704Z,13.15
2023-03-06T09:08:54.260Z,23.60
2023-03-06T09:11:23.762Z,32.97
2023-03-06T09:13:51.745Z,13.48
2023-03-06T09:16:19.687Z,13.65
2023-03-06T09:18:49.781Z,13.98
2023-03-06T09:21:17.978Z,12.10
2023-03-06T09:23:47.474Z,11.68
2023-03-06T09:26:15.427Z,15.10
2023-03-06T09:28:43.185Z,17.83
2023-03-06T09:31:12.293Z,15.07
2023-03-06T09:33:40.633Z,14.52
2023-03-06T09:36:11.502Z,13.77
2023-03-06T09:38:39.344Z,16.35
2023-03-06T09:41:16.368Z,13.13
2023-03-06T09:43:47.015Z,14.15
2023-03-06T09:46:20.796Z,15.25
2023-03-06T09:49:00.646Z,13.45
2023-03-06T09:51:35.434Z,14.68
2023-03-06T09:54:09.665Z,12.45
2023-03-06T09:56:38.963Z,12.10
2023-03-06T09:59:13.400Z,15.80
2023-03-06T10:01:44.684Z,14.30
2023-03-06T10:04:31.180Z,14.50
2023-03-06T10:07:03.345Z,12.90
2023-03-06T10:09:41.342Z,12.52
2023-03-06T10:12:23.005Z,9.70
2023-03-06T10:20:11.928Z,13.20
2023-03-06T10:22:52.609Z,12.65
2023-03-06T10:25:31.602Z,14.55
2023-03-06T10:28:06.650Z,12.05
2023-03-06T10:30:42.431Z,12.07
2023-03-06T10:33:22.748Z,14.27
2023-03-06T10:35:54.907Z,16.23
2023-03-06T10:38:25.162Z,12.00
2023-03-06T10:41:04.830Z,14.05
2023-03-06T10:43:36.371Z,14.50
2023-03-06T10:46:05.369Z,14.45
2023-03-06T10:48:36.225Z,11.48
2023-03-06T10:51:19.130Z,10.95
2023-03-06T10:53:53.242Z,15.10
2023-03-06T10:56:33.646Z,12.10
2023-03-06T10:59:12.818Z,15.07
2023-03-06T11:01:42.329Z,12.20
2023-03-06T11:04:22.989Z,16.50
2023-03-06T11:07:06.486Z,12.82
2023-03-06T11:09:35.235Z,16.15
2023-03-06T11:12:27.125Z,10.23
2023-03-06T11:15:18.851Z,20.70
2023-03-06T11:17:54.171Z,13.90
2023-03-06T11:20:25.051Z,13.07
2023-03-06T11:22:57.249Z,14.50
2023-03-06T11:25:31.230Z,11.55
2023-03-06T11:28:03.437Z,14.25
2023-03-06T11:30:40.707Z,13.57
2023-03-06T11:33:42.532Z,15.18
2023-03-06T11:36:16.628Z,14.55
2023-03-06T11:38:50.192Z,14.18
2023-03-06T11:41:27.768Z,11.98
2023-03-06T11:44:02.506Z,9.85
2023-03-06T11:46:38.931Z,13.70
2023-03-06T11:49:18.066Z,12.38
2023-03-06T11:51:52.072Z,13.25
2023-03-06T11:54:20.287Z,11.07
2023-03-06T11:56:57.244Z,16.38
2023-03-06T11:59:50.822Z,34.25
2023-03-06T12:02:32.655Z,18.27
2023-03-06T12:05:14.258Z,14.32
2023-03-06T12:07:50.378Z,13.70
2023-03-06T12:10:23.685Z,10.40
2023-03-06T12:16:24.399Z,15.30
2023-03-06T12:19:03.313Z,11.50
2023-03-06T12:21:39.611Z,12.60
2023-03-06T12:24:25.852Z,13.23
2023-03-06T12:27:07.587Z,10.35
2023-03-06T12:29:50.413Z,9.48
2023-03-06T12:32:30.086Z,16.00
2023-03-06T12:35:11.066Z,12.10
2023-03-06T12:37:50.230Z,11.32
2023-03-06T12:40:36.782Z,10.38
2023-03-06T12:43:49.967Z,12.52
2023-03-06T12:46:20.906Z,11.63
2023-03-06T12:49:03.077Z,12.95
2023-03-06T12:51:33.426Z,17.90
2023-03-06T12:54:03.310Z,12.70
2023-03-06T12:56:33.429Z,12.35
2023-03-06T12:59:02.655Z,11.20
2023-03-06T13:01:43.509Z,12.20
2023-03-06T13:04:41.303Z,11.43
2023-03-06T13:07:26.338Z,12.88
2023-03-06T13:10:06.871Z,12.30
2023-03-06T13:12:49.953Z,11.05
2023-03-06T13:15:33.416Z,12.30
2023-03-06T13:18:01.513Z,14.32
2023-03-06T13:20:39.500Z,11.48
2023-03-06T13:23:44.586Z,12.25
2023-03-06T13:26:55.011Z,12.05
2023-03-06T13:30:02.539Z,12.40
2023-03-06T13:32:33.988Z,12.43
2023-03-06T13:35:02.002Z,11.50
2023-03-06T13:37:51.463Z,12.23
2023-03-06T13:40:38.380Z,13.73
2023-03-06T13:43:22.407Z,11.02
2023-03-06T13:45:52.137Z,10.77
2023-03-06T13:48:44.362Z,11.85
2023-03-06T13:51:25.021Z,17.67
2023-03-06T13:54:15.879Z,13.63
2023-03-06T13:57:17.468Z,14.07
2023-03-06T14:00:15.599Z,13.30
2023-03-06T14:03:10.193Z,12.25
2023-03-06T14:05:44.310Z,10.52
2023-03-06T14:08:16.540Z,10.00
2023-03-06T14:10:46.500Z,11.35
2023-03-06T14:13:21.248Z,11.82
2023-03-06T14:15:52.548Z,14.18
2023-03-06T14:18:24.284Z,9.95
2023-03-06T14:20:57.745Z,13.95
2023-03-06T14:23:28.748Z,11.75
2023-03-06T14:26:03.718Z,10.60
2023-03-06T14:28:33.146Z,14.68
2023-03-06T14:31:04.494Z,15.05
2023-03-06T14:33:37.944Z,11.48
2023-03-06T14:36:10.871Z,13.10
2023-03-06T14:38:44.627Z,12.13
2023-03-06T14:41:14.110Z,12.50
2023-03-06T14:43:42.079Z,10.77
2023-03-06T14:46:20.308Z,14.05
2023-03-06T14:48:49.531Z,11.07
2023-03-06T14:51:20.299Z,11.85
2023-03-06T14:53:49.910Z,12.50
2023-03-06T14:56:20.625Z,13.18
2023-03-06T14:58:55.467Z,15.10
2023-03-06T15:01:31.202Z,10.98
2023-03-06T15:04:01.105Z,14.05
2023-03-06T15:06:34.437Z,15.32
2023-03-06T15:09:07.855Z,14.80
2023-03-06T15:11:57.340Z,12.38
2023-03-06T15:14:32.287Z,10.75
2023-03-06T15:17:33.279Z,13.38
2023-03-06T15:20:02.501Z,13.38
2023-03-06T15:22:37.544Z,10.10
2023-03-06T15:25:20.718Z,12.30
2023-03-06T15:27:50.884Z,11.18
2023-03-06T15:30:28.209Z,9.93
2023-03-06T15:33:23.932Z,13.85
2023-03-06T15:35:57.830Z,15.45
2023-03-06T15:38:32.900Z,14.30
2023-03-06T15:41:03.258Z,11.15
2023-03-06T15:43:36.250Z,15.32
2023-03-06T15:46:06.833Z,12.45
2023-03-06T15:48:35.365Z,15.38
2023-03-06T15:51:05.495Z,14.75
2023-03-06T15:53:33.381Z,16.88
2023-03-06T15:56:01.290Z,13.13
2023-03-06T15:58:31.113Z,13.85
2023-03-06T16:00:59.293Z,16.85
2023-03-06T16:03:27.112Z,14.35
2023-03-06T16:05:59.272Z,11.30
2023-03-06T16:08:28.890Z,13.57
2023-03-06T16:10:56.872Z,13.68
2023-03-06T16:13:28.473Z,13.20
2023-03-06T16:15:57.034Z,13.45
2023-03-06T16:18:25.055Z,14.20
2023-03-06T16:20:52.936Z,11.45
2023-03-06T16:23:20.789Z,16.90
2023-03-06T16:25:50.706Z,10.55
2023-03-06T16:28:18.950Z,14.25
2023-03-06T16:30:47.001Z,18.48
2023-03-06T16:33:15.590Z,14.95
2023-03-06T16:35:46.656Z,15.55
2023-03-06T16:38:15.713Z,13.45
2023-03-06T16:40:44.057Z,20.63
2023-03-06T16:43:16.090Z,14.35
2023-03-06T16:45:44.169Z,16.55
2023-03-06T16:48:16.990Z,15.65
2023-03-06T16:50:45.702Z,13.65
2023-03-06T16:53:13.889Z,16.15
2023-03-06T16:55:42.242Z,18.17
2023-03-06T16:58:10.009Z,16.05
2023-03-06T17:00:39.158Z,17.80
2023-03-06T17:03:07.773Z,14.45
2023-03-06T17:05:36.811Z,16.95
2023-03-06T17:08:05.713Z,18.00
2023-03-06T17:10:33.561Z,14.40
2023-03-06T17:13:01.380Z,16.38
2023-03-06T17:15:56.214Z,17.08
2023-03-06T17:18:25.424Z,18.75
2023-03-06T17:20:54.828Z,16.50
2023-03-06T17:23:25.973Z,14.60
2023-03-06T17:25:54.193Z,15.90
2023-03-06T17:28:22.410Z,17.85
2023-03-06T17:30:51.465Z,16.25
2023-03-06T17:33:19.308Z,19.52
2023-03-06T17:35:47.187Z,16.20
2023-03-06T17:38:15.004Z,17.50
2023-03-06T17:40:42.815Z,16.58
2023-03-06T17:43:10.553Z,16.20
2023-03-06T17:45:38.272Z,20.55
2023-03-06T17:48:07.962Z,17.95
2023-03-06T17:50:35.773Z,23.27
2023-03-06T17:53:03.575Z,19.15
2023-03-06T17:55:31.335Z,18.38
2023-03-06T17:57:59.241Z,19.13
2023-03-06T18:00:27.266Z,19.40
2023-03-06T18:02:55.024Z,22.05
2023-03-06T18:05:24.185Z,17.63
2023-03-06T18:07:51.997Z,19.58
2023-03-06T18:10:20.322Z,18.48
2023-03-06T18:12:48.110Z,16.63
2023-03-06T18:15:15.885Z,20.20
2023-03-06T18:17:43.670Z,17.85
2023-03-06T18:20:12.672Z,23.25
2023-03-06T18:22:41.907Z,18.83
2023-03-06T18:25:11.293Z,21.77
2023-03-06T18:27:39.011Z,19.10
2023-03-06T18:30:07.799Z,20.88
2023-03-06T18:32:36.580Z,18.33
2023-03-06T18:35:04.733Z,20.30
2023-03-06T18:37:32.581Z,17.95
2023-03-06T18:40:01.969Z,17.40
2023-03-06T18:42:30.044Z,20.58
2023-03-06T18:44:57.793Z,19.42
2023-03-06T18:47:25.581Z,16.95
2023-03-06T18:49:53.385Z,19.88
2023-03-06T18:52:21.182Z,18.05
2023-03-06T18:54:50.495Z,20.88
2023-03-06T18:57:19.661Z,19.92
2023-03-06T18:59:48.240Z,19.95
2023-03-06T19:02:21.433Z,22.42
2023-03-06T19:04:49.861Z,20.83
2023-03-06T19:07:18.096Z,20.50
2023-03-06T19:09:47.020Z,24.25
2023-03-06T19:12:15.496Z,19.33
2023-03-06T19:14:44.938Z,20.08
2023-03-06T19:17:13.104Z,18.88
2023-03-06T19:19:40.909Z,20.58
2023-03-06T19:22:08.725Z,17.42
2023-03-06T19:24:36.450Z,15.75
2023-03-06T19:27:04.266Z,19.45
2023-03-06T19:29:32.514Z,20.05
2023-03-06T19:32:03.086Z,23.33
2023-03-06T19:34:30.935Z,16.55
2023-03-06T19:36:58.680Z,21.65
2023-03-06T19:39:26.859Z,19.38
2023-03-06T19:41:54.844Z,21.52
2023-03-06T19:44:23.211Z,19.45
2023-03-06T19:46:50.997Z,22.08
2023-03-06T19:49:22.214Z,20.63
2023-03-06T19:51:50.009Z,20.02
2023-03-06T19:54:23.189Z,21.60
2023-03-06T19:56:51.036Z,20.73
2023-03-06T19:59:18.944Z,21.27
2023-03-06T20:01:47.066Z,19.65
2023-03-06T20:04:15.008Z,19.75
2023-03-06T20:06:45.488Z,20.55
2023-03-06T20:09:13.942Z,18.35
2023-03-06T20:11:41.759Z,18.20
2023-03-06T20:14:11.578Z,20.27
2023-03-06T20:16:39.818Z,20.80
2023-03-06T20:19:08.688Z,17.33
2023-03-06T20:21:37.859Z,21.10
2023-03-06T20:24:09.221Z,18.10
2023-03-06T20:26:38.545Z,15.70
2023-03-06T20:29:06.346Z,19.67
2023-03-06T20:31:34.326Z,18.75
2023-03-06T20:34:02.277Z,20.23
2023-03-06T20:36:32.444Z,17.40
2023-03-06T20:39:02.153Z,18.27
2023-03-06T20:41:32.980Z,17.02
2023-03-06T20:44:02.491Z,19.80
2023-03-06T20:46:30.933Z,18.92
2023-03-06T20:48:59.568Z,23.70
2023-03-06T20:51:28.957Z,20.80
2023-03-06T20:53:57.317Z,20.52
2023-03-06T20:56:26.788Z,17.70
2023-03-06T20:58:56.881Z,18.80
2023-03-06T21:01:29.424Z,19.52
2023-03-06T21:03:58.940Z,22.80
2023-03-06T21:06:28.085Z,23.67
2023-03-06T21:08:56.058Z,19.80
2023-03-06T21:11:24.022Z,16.52
2023-03-06T21:13:52.960Z,18.20
2023-03-06T21:16:24.091Z,25.33
2023-03-06T21:18:52.251Z,19.02
2023-03-06T21:21:22.951Z,19.02
2023-03-06T21:23:51.601Z,18.65
2023-03-06T21:26:21.965Z,22.27
2023-03-06T21:28:50.342Z,19.60
2023-03-06T21:31:20.121Z,19.33
2023-03-06T21:33:51.200Z,23.13
2023-03-06T21:36:21.424Z,21.42
2023-03-06T21:38:52.167Z,18.88
2023-03-06T21:41:24.143Z,20.15
2023-03-06T21:43:55.271Z,22.58
2023-03-06T21:46:23.532Z,30.50
2023-03-06T21:48:52.664Z,22.60
2023-03-06T21:51:23.521Z,20.08
2023-03-06T21:53:52.462Z,23.48
2023-03-06T21:56:22.650Z,24.23
2023-03-06T21:58:50.700Z,23.77
2023-03-06T22:01:20.962Z,23.05
2023-03-06T22:03:48.872Z,19.80
2023-03-06T22:06:20.950Z,16.95
2023-03-06T22:08:49.961Z,19.75
2023-03-06T22:11:19.640Z,24.48
2023-03-06T22:13:49.001Z,22.15
2023-03-06T22:16:18.378Z,20.55
2023-03-06T22:18:47.318Z,19.40
2023-03-06T22:21:18.197Z,22.10
2023-03-06T22:23:50.320Z,22.65
2023-03-06T22:26:18.516Z,24.80
2023-03-06T22:28:46.407Z,20.75
2023-03-06T22:31:15.967Z,22.92
2023-03-06T22:33:44.249Z,20.90
2023-03-06T22:36:13.820Z,23.70
2023-03-06T22:38:43.360Z,21.17
2023-03-06T22:41:14.169Z,19.80
2023-03-06T22:43:42.649Z,21.35
2023-03-06T22:46:13.303Z,21.58
2023-03-06T22:48:41.572Z,24.92
2023-03-06T22:51:12.854Z,21.83
2023-03-06T22:53:40.960Z,21.17
2023-03-06T22:56:13.350Z,22.73
2023-03-06T22:58:41.426Z,23.08
2023-03-06T23:01:11.185Z,22.33
2023-03-06T23:03:46.361Z,23.52
2023-03-06T23:06:16.837Z,24.15
2023-03-06T23:08:46.406Z,20.00
2023-03-06T23:11:19.780Z,21.25
2023-03-06T23:13:47.997Z,18.48
2023-03-06T23:16:15.993Z,22.90
2023-03-06T23:18:44.361Z,21.45
2023-03-06T23:21:15.222Z,20.63
2023-03-06T23:23:44.260Z,20.75
2023-03-06T23:26:15.099Z,22.85
2023-03-06T23:28:44.267Z,19.30
2023-03-06T23:31:13.953Z,22.25
2023-03-06T23:33:43.458Z,21.98
2023-03-06T23:36:13.904Z,24.52
2023-03-06T23:38:42.142Z,20.58
2023-03-06T23:41:12.703Z,19.40
2023-03-06T23:43:41.122Z,20.65
2023-03-06T23:46:10.871Z,21.60
2023-03-06T23:48:57.890Z,23.83
2023-03-06T23:51:25.889Z,22.80
2023-03-06T23:53:59.085Z,20.83
2023-03-06T23:56:28.602Z,22.60
2023-03-06T23:58:56.376Z,24.42
